sensor_id;sensor_type;location;lat;lon;timestamp;P1;durP1;ratioP1;P2;durP2;ratioP2
70757;SDS011;59316;52.964;7.102;2023-05-23T00:01:10;26.65;;;14.32;;
70757;SDS011;59316;52.964;7.102;2023-05-23T00:06:31;37.17;;;17.55;;
70757;SDS011;59316;52.964;7.102;2023-05-23T00:11:53;51.33;;;22.33;;
70757;SDS011;59316;52.964;7.102;2023-05-23T00:17:14;57.03;;;22.20;;
70757;SDS011;59316;52.964;7.102;2023-05-23T00:22:36;52.92;;;23.05;;
70757;SDS011;59316;52.964;7.102;2023-05-23T00:28:01;56.58;;;23.05;;
70757;SDS011;59316;52.964;7.102;2023-05-23T00:33:24;58.35;;;22.92;;
70757;SDS011;59316;52.964;7.102;2023-05-23T00:38:45;59.53;;;24.25;;
70757;SDS011;59316;52.964;7.102;2023-05-23T00:44:07;61.03;;;24.42;;
70757;SDS011;59316;52.964;7.102;2023-05-23T00:49:28;64.10;;;24.45;;
70757;SDS011;59316;52.964;7.102;2023-05-23T00:54:50;59.05;;;23.33;;
70757;SDS011;59316;52.964;7.102;2023-05-23T01:00:12;66.32;;;25.50;;
70757;SDS011;59316;52.964;7.102;2023-05-23T01:05:34;67.47;;;24.77;;
70757;SDS011;59316;52.964;7.102;2023-05-23T01:10:56;59.13;;;24.35;;
70757;SDS011;59316;52.964;7.102;2023-05-23T01:16:29;52.92;;;22.35;;
70757;SDS011;59316;52.964;7.102;2023-05-23T01:22:04;47.65;;;21.80;;
70757;SDS011;59316;52.964;7.102;2023-05-23T01:27:48;47.38;;;20.77;;
70757;SDS011;59316;52.964;7.102;2023-05-23T01:33:17;42.65;;;21.27;;
70757;SDS011;59316;52.964;7.102;2023-05-23T01:38:40;43.77;;;19.83;;
70757;SDS011;59316;52.964;7.102;2023-05-23T01:44:02;41.38;;;18.58;;
70757;SDS011;59316;52.964;7.102;2023-05-23T01:49:24;41.70;;;17.38;;
70757;SDS011;59316;52.964;7.102;2023-05-23T01:54:47;36.67;;;19.63;;
70757;SDS011;59316;52.964;7.102;2023-05-23T02:00:10;40.60;;;19.35;;
70757;SDS011;59316;52.964;7.102;2023-05-23T02:05:38;37.53;;;19.17;;
70757;SDS011;59316;52.964;7.102;2023-05-23T02:11:00;40.05;;;18.48;;
70757;SDS011;59316;52.964;7.102;2023-05-23T02:16:21;33.38;;;16.08;;
70757;SDS011;59316;52.964;7.102;2023-05-23T02:21:43;30.33;;;15.20;;
70757;SDS011;59316;52.964;7.102;2023-05-23T02:27:05;26.88;;;13.18;;
70757;SDS011;59316;52.964;7.102;2023-05-23T02:32:26;27.10;;;12.93;;
70757;SDS011;59316;52.964;7.102;2023-05-23T02:37:49;28.27;;;14.05;;
70757;SDS011;59316;52.964;7.102;2023-05-23T02:43:10;21.65;;;11.75;;
70757;SDS011;59316;52.964;7.102;2023-05-23T02:48:32;25.27;;;10.77;;
70757;SDS011;59316;52.964;7.102;2023-05-23T02:53:53;21.20;;;10.68;;
70757;SDS011;59316;52.964;7.102;2023-05-23T02:59:15;18.52;;;9.63;;
70757;SDS011;59316;52.964;7.102;2023-05-23T03:04:37;30.50;;;9.95;;
70757;SDS011;59316;52.964;7.102;2023-05-23T03:10:00;27.30;;;10.13;;
70757;SDS011;59316;52.964;7.102;2023-05-23T03:15:21;29.70;;;10.32;;
70757;SDS011;59316;52.964;7.102;2023-05-23T03:20:42;30.58;;;10.57;;
70757;SDS011;59316;52.964;7.102;2023-05-23T03:26:04;26.98;;;10.07;;
70757;SDS011;59316;52.964;7.102;2023-05-23T03:31:25;23.33;;;9.05;;
70757;SDS011;59316;52.964;7.102;2023-05-23T03:36:47;20.90;;;8.10;;
70757;SDS011;59316;52.964;7.102;2023-05-23T03:42:09;24.08;;;7.95;;
70757;SDS011;59316;52.964;7.102;2023-05-23T03:47:30;16.63;;;6.88;;
70757;SDS011;59316;52.964;7.102;2023-05-23T03:52:52;15.27;;;6.53;;
70757;SDS011;59316;52.964;7.102;2023-05-23T03:58:14;13.25;;;6.20;;
70757;SDS011;59316;52.964;7.102;2023-05-23T04:03:39;17.60;;;5.22;;
70757;SDS011;59316;52.964;7.102;2023-05-23T04:09:00;10.10;;;4.88;;
70757;SDS011;59316;52.964;7.102;2023-05-23T04:14:24;11.65;;;4.80;;
70757;SDS011;59316;52.964;7.102;2023-05-23T04:19:47;15.38;;;5.90;;
70757;SDS011;59316;52.964;7.102;2023-05-23T04:25:09;13.32;;;5.72;;
70757;SDS011;59316;52.964;7.102;2023-05-23T04:30:37;18.08;;;6.75;;
70757;SDS011;59316;52.964;7.102;2023-05-23T04:36:00;16.80;;;7.18;;
70757;SDS011;59316;52.964;7.102;2023-05-23T04:41:21;20.10;;;7.82;;
70757;SDS011;59316;52.964;7.102;2023-05-23T04:47:09;19.55;;;7.22;;
70757;SDS011;59316;52.964;7.102;2023-05-23T04:52:54;26.17;;;7.57;;
70757;SDS011;59316;52.964;7.102;2023-05-23T04:58:16;18.40;;;6.50;;
70757;SDS011;59316;52.964;7.102;2023-05-23T05:03:38;18.63;;;7.05;;
70757;SDS011;59316;52.964;7.102;2023-05-23T05:09:00;22.05;;;6.70;;
70757;SDS011;59316;52.964;7.102;2023-05-23T05:14:21;20.40;;;6.55;;
70757;SDS011;59316;52.964;7.102;2023-05-23T05:19:45;25.08;;;7.82;;
70757;SDS011;59316;52.964;7.102;2023-05-23T05:25:06;19.08;;;6.00;;
70757;SDS011;59316;52.964;7.102;2023-05-23T05:30:29;19.27;;;5.50;;
70757;SDS011;59316;52.964;7.102;2023-05-23T05:35:53;20.88;;;5.80;;
70757;SDS011;59316;52.964;7.102;2023-05-23T05:41:14;16.52;;;5.18;;
70757;SDS011;59316;52.964;7.102;2023-05-23T05:46:42;20.20;;;4.70;;
70757;SDS011;59316;52.964;7.102;2023-05-23T05:52:07;15.57;;;4.13;;
70757;SDS011;59316;52.964;7.102;2023-05-23T05:57:28;19.15;;;4.30;;
70757;SDS011;59316;52.964;7.102;2023-05-23T06:02:50;18.10;;;5.43;;
70757;SDS011;59316;52.964;7.102;2023-05-23T06:08:25;13.65;;;5.90;;
70757;SDS011;59316;52.964;7.102;2023-05-23T06:13:47;17.15;;;5.50;;
70757;SDS011;59316;52.964;7.102;2023-05-23T06:19:08;18.38;;;5.20;;
70757;SDS011;59316;52.964;7.102;2023-05-23T06:24:32;26.57;;;6.57;;
70757;SDS011;59316;52.964;7.102;2023-05-23T06:29:55;20.15;;;5.55;;
70757;SDS011;59316;52.964;7.102;2023-05-23T06:35:16;16.05;;;6.43;;
70757;SDS011;59316;52.964;7.102;2023-05-23T06:40:38;14.77;;;5.68;;
70757;SDS011;59316;52.964;7.102;2023-05-23T06:45:59;18.58;;;6.10;;
70757;SDS011;59316;52.964;7.102;2023-05-23T06:51:21;17.63;;;5.95;;
70757;SDS011;59316;52.964;7.102;2023-05-23T06:56:43;15.40;;;4.55;;
70757;SDS011;59316;52.964;7.102;2023-05-23T07:02:05;20.30;;;5.40;;
70757;SDS011;59316;52.964;7.102;2023-05-23T07:07:27;12.18;;;3.92;;
70757;SDS011;59316;52.964;7.102;2023-05-23T07:12:48;13.20;;;4.85;;
70757;SDS011;59316;52.964;7.102;2023-05-23T07:18:12;11.02;;;4.30;;
70757;SDS011;59316;52.964;7.102;2023-05-23T07:23:34;7.63;;;3.40;;
70757;SDS011;59316;52.964;7.102;2023-05-23T07:28:56;18.83;;;3.80;;
70757;SDS011;59316;52.964;7.102;2023-05-23T07:34:19;14.40;;;2.97;;
70757;SDS011;59316;52.964;7.102;2023-05-23T07:39:47;16.92;;;3.58;;
70757;SDS011;59316;52.964;7.102;2023-05-23T07:45:09;15.80;;;3.90;;
70757;SDS011;59316;52.964;7.102;2023-05-23T07:50:34;14.52;;;3.03;;
70757;SDS011;59316;52.964;7.102;2023-05-23T07:55:56;13.82;;;3.30;;
70757;SDS011;59316;52.964;7.102;2023-05-23T08:01:21;11.57;;;3.30;;
70757;SDS011;59316;52.964;7.102;2023-05-23T08:06:57;19.10;;;3.10;;
70757;SDS011;59316;52.964;7.102;2023-05-23T08:12:34;14.27;;;3.45;;
70757;SDS011;59316;52.964;7.102;2023-05-23T08:18:04;15.63;;;2.80;;
70757;SDS011;59316;52.964;7.102;2023-05-23T08:23:25;16.40;;;3.33;;
70757;SDS011;59316;52.964;7.102;2023-05-23T08:28:47;19.38;;;3.47;;
70757;SDS011;59316;52.964;7.102;2023-05-23T08:34:09;21.95;;;3.85;;
70757;SDS011;59316;52.964;7.102;2023-05-23T08:39:32;13.33;;;2.87;;
70757;SDS011;59316;52.964;7.102;2023-05-23T08:45:12;14.32;;;2.85;;
70757;SDS011;59316;52.964;7.102;2023-05-23T08:50:34;14.95;;;3.45;;
70757;SDS011;59316;52.964;7.102;2023-05-23T08:56:01;10.05;;;3.00;;
70757;SDS011;59316;52.964;7.102;2023-05-23T09:01:32;11.40;;;2.28;;
70757;SDS011;59316;52.964;7.102;2023-05-23T09:06:57;13.95;;;3.13;;
70757;SDS011;59316;52.964;7.102;2023-05-23T09:17:43;10.38;;;2.58;;
70757;SDS011;59316;52.964;7.102;2023-05-23T09:23:05;18.83;;;3.15;;
70757;SDS011;59316;52.964;7.102;2023-05-23T09:28:26;9.43;;;2.85;;
70757;SDS011;59316;52.964;7.102;2023-05-23T09:33:48;15.73;;;3.60;;
70757;SDS011;59316;52.964;7.102;2023-05-23T09:39:12;22.27;;;3.20;;
70757;SDS011;59316;52.964;7.102;2023-05-23T09:44:34;10.07;;;2.65;;
70757;SDS011;59316;52.964;7.102;2023-05-23T09:50:02;11.68;;;2.85;;
70757;SDS011;59316;52.964;7.102;2023-05-23T09:55:24;16.05;;;3.08;;
70757;SDS011;59316;52.964;7.102;2023-05-23T10:00:47;9.90;;;2.88;;
70757;SDS011;59316;52.964;7.102;2023-05-23T10:06:28;10.13;;;2.90;;
70757;SDS011;59316;52.964;7.102;2023-05-23T10:23:31;11.57;;;2.55;;
70757;SDS011;59316;52.964;7.102;2023-05-23T10:28:54;10.82;;;3.13;;
70757;SDS011;59316;52.964;7.102;2023-05-23T10:34:27;19.30;;;2.40;;
70757;SDS011;59316;52.964;7.102;2023-05-23T10:52:11;9.50;;;2.40;;
70757;SDS011;59316;52.964;7.102;2023-05-23T10:57:35;12.48;;;2.50;;
70757;SDS011;59316;52.964;7.102;2023-05-23T11:02:58;10.65;;;2.42;;
70757;SDS011;59316;52.964;7.102;2023-05-23T11:08:20;11.25;;;2.67;;
70757;SDS011;59316;52.964;7.102;2023-05-23T11:24:49;9.57;;;2.88;;
70757;SDS011;59316;52.964;7.102;2023-05-23T11:30:13;10.93;;;2.65;;
70757;SDS011;59316;52.964;7.102;2023-05-23T11:35:36;10.60;;;2.33;;
70757;SDS011;59316;52.964;7.102;2023-05-23T11:40:58;12.00;;;2.38;;
70757;SDS011;59316;52.964;7.102;2023-05-23T11:46:20;8.18;;;2.10;;
70757;SDS011;59316;52.964;7.102;2023-05-23T11:51:41;10.63;;;2.45;;
70757;SDS011;59316;52.964;7.102;2023-05-23T11:57:03;13.57;;;2.63;;
70757;SDS011;59316;52.964;7.102;2023-05-23T12:02:26;10.00;;;2.47;;
70757;SDS011;59316;52.964;7.102;2023-05-23T12:07:48;9.50;;;2.70;;
70757;SDS011;59316;52.964;7.102;2023-05-23T12:13:10;8.63;;;2.50;;
70757;SDS011;59316;52.964;7.102;2023-05-23T12:18:31;7.20;;;2.25;;
70757;SDS011;59316;52.964;7.102;2023-05-23T12:23:53;13.88;;;2.90;;
70757;SDS011;59316;52.964;7.102;2023-05-23T12:29:38;9.53;;;2.30;;
70757;SDS011;59316;52.964;7.102;2023-05-23T12:34:58;9.25;;;2.00;;
70757;SDS011;59316;52.964;7.102;2023-05-23T12:40:20;13.13;;;2.10;;
70757;SDS011;59316;52.964;7.102;2023-05-23T12:45:41;9.18;;;2.30;;
70757;SDS011;59316;52.964;7.102;2023-05-23T12:51:03;6.95;;;2.30;;
70757;SDS011;59316;52.964;7.102;2023-05-23T12:56:24;13.65;;;2.30;;
70757;SDS011;59316;52.964;7.102;2023-05-23T13:01:46;8.15;;;2.63;;
70757;SDS011;59316;52.964;7.102;2023-05-23T13:07:08;10.23;;;2.60;;
70757;SDS011;59316;52.964;7.102;2023-05-23T13:12:29;5.45;;;1.90;;
70757;SDS011;59316;52.964;7.102;2023-05-23T13:17:51;10.95;;;2.13;;
70757;SDS011;59316;52.964;7.102;2023-05-23T13:23:12;6.63;;;1.77;;
70757;SDS011;59316;52.964;7.102;2023-05-23T13:28:34;9.10;;;1.80;;
70757;SDS011;59316;52.964;7.102;2023-05-23T13:33:56;10.38;;;2.00;;
70757;SDS011;59316;52.964;7.102;2023-05-23T13:39:17;9.27;;;1.98;;
70757;SDS011;59316;52.964;7.102;2023-05-23T13:44:39;8.05;;;1.85;;
70757;SDS011;59316;52.964;7.102;2023-05-23T13:50:01;9.45;;;2.03;;
70757;SDS011;59316;52.964;7.102;2023-05-23T13:55:24;9.23;;;1.90;;
70757;SDS011;59316;52.964;7.102;2023-05-23T14:00:45;7.60;;;1.90;;
70757;SDS011;59316;52.964;7.102;2023-05-23T14:06:07;7.68;;;2.00;;
70757;SDS011;59316;52.964;7.102;2023-05-23T14:11:28;7.47;;;2.05;;
70757;SDS011;59316;52.964;7.102;2023-05-23T14:16:50;6.82;;;1.73;;
70757;SDS011;59316;52.964;7.102;2023-05-23T14:22:12;7.90;;;1.90;;
70757;SDS011;59316;52.964;7.102;2023-05-23T14:27:33;11.50;;;2.00;;
70757;SDS011;59316;52.964;7.102;2023-05-23T14:32:55;8.20;;;1.70;;
70757;SDS011;59316;52.964;7.102;2023-05-23T14:38:16;7.85;;;2.22;;
70757;SDS011;59316;52.964;7.102;2023-05-23T14:43:38;11.30;;;2.20;;
70757;SDS011;59316;52.964;7.102;2023-05-23T14:49:00;6.35;;;1.95;;
70757;SDS011;59316;52.964;7.102;2023-05-23T14:54:21;6.75;;;1.95;;
70757;SDS011;59316;52.964;7.102;2023-05-23T14:59:43;8.30;;;1.67;;
70757;SDS011;59316;52.964;7.102;2023-05-23T15:05:04;8.27;;;1.80;;
70757;SDS011;59316;52.964;7.102;2023-05-23T15:10:26;13.77;;;2.20;;
70757;SDS011;59316;52.964;7.102;2023-05-23T15:15:48;8.90;;;2.17;;
70757;SDS011;59316;52.964;7.102;2023-05-23T15:21:09;9.45;;;2.10;;
70757;SDS011;59316;52.964;7.102;2023-05-23T15:26:31;5.57;;;1.60;;
70757;SDS011;59316;52.964;7.102;2023-05-23T15:31:53;10.55;;;1.95;;
70757;SDS011;59316;52.964;7.102;2023-05-23T15:37:15;6.97;;;1.60;;
70757;SDS011;59316;52.964;7.102;2023-05-23T15:42:37;9.02;;;1.90;;
70757;SDS011;59316;52.964;7.102;2023-05-23T15:47:58;7.50;;;2.58;;
70757;SDS011;59316;52.964;7.102;2023-05-23T15:53:20;8.70;;;1.60;;
70757;SDS011;59316;52.964;7.102;2023-05-23T15:58:41;5.07;;;1.13;;
70757;SDS011;59316;52.964;7.102;2023-05-23T16:04:03;9.68;;;1.73;;
70757;SDS011;59316;52.964;7.102;2023-05-23T16:09:25;6.38;;;2.03;;
70757;SDS011;59316;52.964;7.102;2023-05-23T16:14:46;11.68;;;1.77;;
70757;SDS011;59316;52.964;7.102;2023-05-23T16:20:08;11.63;;;1.65;;
70757;SDS011;59316;52.964;7.102;2023-05-23T16:25:29;7.35;;;1.35;;
70757;SDS011;59316;52.964;7.102;2023-05-23T16:30:51;9.88;;;1.75;;
70757;SDS011;59316;52.964;7.102;2023-05-23T16:36:12;10.27;;;2.00;;
70757;SDS011;59316;52.964;7.102;2023-05-23T16:41:34;11.48;;;2.03;;
70757;SDS011;59316;52.964;7.102;2023-05-23T16:46:55;9.65;;;1.60;;
70757;SDS011;59316;52.964;7.102;2023-05-23T16:52:17;7.80;;;1.25;;
70757;SDS011;59316;52.964;7.102;2023-05-23T16:57:38;7.25;;;1.42;;
70757;SDS011;59316;52.964;7.102;2023-05-23T17:03:00;7.85;;;1.80;;
70757;SDS011;59316;52.964;7.102;2023-05-23T17:08:22;14.30;;;1.80;;
70757;SDS011;59316;52.964;7.102;2023-05-23T17:13:43;9.90;;;1.60;;
70757;SDS011;59316;52.964;7.102;2023-05-23T17:19:05;9.63;;;1.48;;
70757;SDS011;59316;52.964;7.102;2023-05-23T17:24:27;11.07;;;1.83;;
70757;SDS011;59316;52.964;7.102;2023-05-23T17:29:48;10.30;;;1.58;;
70757;SDS011;59316;52.964;7.102;2023-05-23T17:35:10;7.93;;;2.00;;
70757;SDS011;59316;52.964;7.102;2023-05-23T17:40:31;10.90;;;1.45;;
70757;SDS011;59316;52.964;7.102;2023-05-23T17:45:53;14.85;;;2.10;;
70757;SDS011;59316;52.964;7.102;2023-05-23T17:51:17;8.70;;;1.80;;
70757;SDS011;59316;52.964;7.102;2023-05-23T17:56:39;8.57;;;1.38;;
70757;SDS011;59316;52.964;7.102;2023-05-23T18:02:00;9.00;;;1.40;;
70757;SDS011;59316;52.964;7.102;2023-05-23T18:07:22;11.93;;;2.17;;
70757;SDS011;59316;52.964;7.102;2023-05-23T18:12:43;10.18;;;1.65;;
70757;SDS011;59316;52.964;7.102;2023-05-23T18:18:05;10.73;;;1.88;;
70757;SDS011;59316;52.964;7.102;2023-05-23T18:23:27;8.60;;;1.60;;
70757;SDS011;59316;52.964;7.102;2023-05-23T18:28:48;7.03;;;1.88;;
70757;SDS011;59316;52.964;7.102;2023-05-23T18:34:10;9.02;;;1.75;;
70757;SDS011;59316;52.964;7.102;2023-05-23T18:39:31;9.88;;;2.35;;
70757;SDS011;59316;52.964;7.102;2023-05-23T18:44:53;14.88;;;3.08;;
70757;SDS011;59316;52.964;7.102;2023-05-23T18:50:14;14.32;;;2.35;;
70757;SDS011;59316;52.964;7.102;2023-05-23T18:55:36;10.35;;;2.38;;
70757;SDS011;59316;52.964;7.102;2023-05-23T19:00:57;9.27;;;2.03;;
70757;SDS011;59316;52.964;7.102;2023-05-23T19:06:19;12.25;;;3.17;;
70757;SDS011;59316;52.964;7.102;2023-05-23T19:11:41;12.40;;;2.40;;
70757;SDS011;59316;52.964;7.102;2023-05-23T19:17:02;11.80;;;2.40;;
70757;SDS011;59316;52.964;7.102;2023-05-23T19:22:29;15.75;;;2.63;;
70757;SDS011;59316;52.964;7.102;2023-05-23T19:28:02;9.73;;;2.55;;
70757;SDS011;59316;52.964;7.102;2023-05-23T19:33:24;14.13;;;2.65;;
70757;SDS011;59316;52.964;7.102;2023-05-23T19:38:45;14.65;;;2.45;;
70757;SDS011;59316;52.964;7.102;2023-05-23T19:44:07;16.98;;;2.88;;
70757;SDS011;59316;52.964;7.102;2023-05-23T19:49:29;11.27;;;3.08;;
70757;SDS011;59316;52.964;7.102;2023-05-23T19:54:50;12.57;;;2.50;;
70757;SDS011;59316;52.964;7.102;2023-05-23T20:00:12;16.15;;;2.80;;
70757;SDS011;59316;52.964;7.102;2023-05-23T20:05:34;16.17;;;3.28;;
70757;SDS011;59316;52.964;7.102;2023-05-23T20:10:55;11.95;;;2.60;;
70757;SDS011;59316;52.964;7.102;2023-05-23T20:16:17;16.95;;;3.28;;
70757;SDS011;59316;52.964;7.102;2023-05-23T20:21:38;14.45;;;3.10;;
70757;SDS011;59316;52.964;7.102;2023-05-23T20:27:00;16.73;;;3.13;;
70757;SDS011;59316;52.964;7.102;2023-05-23T20:32:21;20.35;;;3.58;;
70757;SDS011;59316;52.964;7.102;2023-05-23T20:37:43;16.25;;;3.28;;
70757;SDS011;59316;52.964;7.102;2023-05-23T20:43:04;16.02;;;3.40;;
70757;SDS011;59316;52.964;7.102;2023-05-23T20:48:26;18.38;;;3.72;;
70757;SDS011;59316;52.964;7.102;2023-05-23T20:53:49;23.70;;;3.50;;
70757;SDS011;59316;52.964;7.102;2023-05-23T20:59:11;16.27;;;3.60;;
70757;SDS011;59316;52.964;7.102;2023-05-23T21:04:33;20.98;;;3.55;;
70757;SDS011;59316;52.964;7.102;2023-05-23T21:09:54;21.77;;;4.63;;
70757;SDS011;59316;52.964;7.102;2023-05-23T21:15:16;14.82;;;3.60;;
70757;SDS011;59316;52.964;7.102;2023-05-23T21:20:38;27.42;;;4.43;;
70757;SDS011;59316;52.964;7.102;2023-05-23T21:26:00;16.88;;;3.45;;
70757;SDS011;59316;52.964;7.102;2023-05-23T21:31:21;19.20;;;3.65;;
70757;SDS011;59316;52.964;7.102;2023-05-23T21:36:53;18.90;;;4.00;;
70757;SDS011;59316;52.964;7.102;2023-05-23T21:42:14;17.25;;;4.38;;
70757;SDS011;59316;52.964;7.102;2023-05-23T21:47:36;19.83;;;4.15;;
70757;SDS011;59316;52.964;7.102;2023-05-23T21:52:57;30.70;;;4.20;;
70757;SDS011;59316;52.964;7.102;2023-05-23T21:58:19;20.92;;;4.05;;
70757;SDS011;59316;52.964;7.102;2023-05-23T22:03:40;13.63;;;3.90;;
70757;SDS011;59316;52.964;7.102;2023-05-23T22:09:02;15.85;;;4.07;;
70757;SDS011;59316;52.964;7.102;2023-05-23T22:14:24;19.10;;;4.38;;
70757;SDS011;59316;52.964;7.102;2023-05-23T22:19:46;24.85;;;4.70;;
70757;SDS011;59316;52.964;7.102;2023-05-23T22:25:07;20.05;;;4.32;;
70757;SDS011;59316;52.964;7.102;2023-05-23T22:30:29;20.80;;;4.95;;
70757;SDS011;59316;52.964;7.102;2023-05-23T22:35:50;25.77;;;5.07;;
70757;SDS011;59316;52.964;7.102;2023-05-23T22:41:12;28.90;;;5.45;;
70757;SDS011;59316;52.964;7.102;2023-05-23T22:46:33;19.73;;;4.32;;
70757;SDS011;59316;52.964;7.102;2023-05-23T22:51:55;15.63;;;4.30;;
70757;SDS011;59316;52.964;7.102;2023-05-23T22:57:17;20.00;;;4.78;;
70757;SDS011;59316;52.964;7.102;2023-05-23T23:02:38;16.50;;;4.60;;
70757;SDS011;59316;52.964;7.102;2023-05-23T23:08:00;20.58;;;4.68;;
70757;SDS011;59316;52.964;7.102;2023-05-23T23:13:21;22.98;;;4.47;;
70757;SDS011;59316;52.964;7.102;2023-05-23T23:18:43;30.83;;;5.32;;
70757;SDS011;59316;52.964;7.102;2023-05-23T23:24:05;26.30;;;5.65;;
70757;SDS011;59316;52.964;7.102;2023-05-23T23:29:26;22.33;;;4.88;;
70757;SDS011;59316;52.964;7.102;2023-05-23T23:34:48;29.13;;;4.68;;
70757;SDS011;59316;52.964;7.102;2023-05-23T23:40:10;20.20;;;4.72;;
70757;SDS011;59316;52.964;7.102;2023-05-23T23:45:32;22.42;;;5.07;;
70757;SDS011;59316;52.964;7.102;2023-05-23T23:50:53;36.20;;;5.20;;
70757;SDS011;59316;52.964;7.102;2023-05-23T23:56:15;31.33;;;5.32;;
